Time;durP1;ratioP1;P1;durP2;ratioP2;P2;SDS_P1;SDS_P2;PMS_P1;PMS_P2;Temp;Humidity;BMP_temperature;BMP_pressure;BME280_temperature;BME280_humidity;BME280_pressure;Samples;Min_cycle;Max_cycle;Signal;HPM_P1;HPM_P2
2023/04/03 00:00:52;;;;;;;13.68;7.43;;;;;;;2.24;88.88;102833.13;5033649;28;20029;-61
2023/04/03 00:03:18;;;;;;;11.38;7.10;;;;;;;2.23;88.60;102839.25;5039935;28;20044;-61
2023/04/03 00:05:45;;;;;;;11.65;6.97;;;;;;;2.19;88.79;102840.28;5037917;28;20029;-61
2023/04/03 00:08:10;;;;;;;14.00;7.55;;;;;;;2.18;88.32;102835.97;5038896;28;20041;-62
2023/04/03 00:10:36;;;;;;;10.73;7.20;;;;;;;2.20;88.38;102836.75;5038273;28;20590;-62
2023/04/03 00:13:03;;;;;;;10.98;7.60;;;;;;;2.19;88.68;102836.81;5040045;28;20068;-62
2023/04/03 00:15:29;;;;;;;13.52;7.63;;;;;;;2.10;88.56;102838.00;5040869;28;20059;-61
2023/04/03 00:17:54;;;;;;;12.88;7.47;;;;;;;2.10;88.35;102843.22;5035410;28;20037;-61
2023/04/03 00:20:20;;;;;;;12.82;7.55;;;;;;;2.11;88.72;102839.69;5037274;28;20422;-62
2023/04/03 00:22:45;;;;;;;12.40;8.00;;;;;;;1.94;89.24;102849.03;5039537;28;20040;-62
2023/04/03 00:25:11;;;;;;;10.43;7.43;;;;;;;1.94;90.12;102848.19;5043834;28;20125;-61
2023/04/03 00:27:38;;;;;;;11.82;7.15;;;;;;;1.95;89.99;102849.88;5043472;28;20028;-62
2023/04/03 00:30:03;;;;;;;17.23;7.75;;;;;;;1.95;89.95;102855.97;5039050;28;20029;-62
2023/04/03 00:32:29;;;;;;;15.88;7.80;;;;;;;1.81;89.96;102855.59;5042069;28;20500;-62
2023/04/03 00:34:54;;;;;;;12.07;7.47;;;;;;;1.84;90.46;102847.66;5041939;28;20033;-61
2023/04/03 00:37:20;;;;;;;12.25;7.60;;;;;;;1.83;90.63;102857.25;5043127;28;21034;-62
2023/04/03 00:39:45;;;;;;;13.82;7.57;;;;;;;1.81;90.93;102852.97;5038576;28;20493;-61
2023/04/03 00:42:10;;;;;;;13.73;7.95;;;;;;;1.80;90.22;102851.28;5042101;28;20035;-62
2023/04/03 00:44:36;;;;;;;12.10;7.65;;;;;;;1.81;90.31;102859.06;5044347;28;20059;-61
2023/04/03 00:47:08;;;;;;;10.45;7.32;;;;;;;1.80;90.38;102857.38;5045359;28;20083;-62
2023/04/03 00:49:34;;;;;;;12.30;7.50;;;;;;;1.80;90.17;102867.84;5045248;28;20033;-61
2023/04/03 00:51:59;;;;;;;14.05;7.90;;;;;;;1.64;90.80;102857.06;5045294;28;20033;-62
2023/04/03 00:54:26;;;;;;;13.05;7.80;;;;;;;1.70;90.74;102869.94;5043390;28;20048;-61
2023/04/03 00:56:54;;;;;;;12.50;7.68;;;;;;;1.68;91.19;102855.19;5042136;28;20025;-62
2023/04/03 00:59:28;;;;;;;11.55;7.57;;;;;;;1.66;91.30;102857.84;5046055;28;20107;-62
2023/04/03 01:01:55;;;;;;;11.93;7.70;;;;;;;1.46;90.58;102863.75;5041125;28;20135;-61
2023/04/03 01:04:38;;;;;;;10.68;7.57;;;;;;;1.48;91.87;102862.78;5046260;28;20377;-61
2023/04/03 01:07:18;;;;;;;13.73;8.37;;;;;;;1.42;91.75;102860.38;5047105;28;20025;-61
2023/04/03 01:09:45;;;;;;;15.17;8.10;;;;;;;1.52;91.94;102867.94;5045623;28;20291;-61
2023/04/03 01:12:28;;;;;;;12.90;7.53;;;;;;;1.47;91.66;102865.47;5043693;28;20030;-62
2023/04/03 01:14:59;;;;;;;11.73;7.53;;;;;;;1.51;91.50;102867.06;5041126;28;20488;-61
2023/04/03 01:17:27;;;;;;;9.43;6.87;;;;;;;1.47;91.50;102868.94;5035931;28;20033;-61
2023/04/03 01:20:21;;;;;;;13.03;7.03;;;;;;;1.48;91.65;102862.78;5047469;28;20143;-61
2023/04/03 01:22:52;;;;;;;11.03;6.97;;;;;;;1.50;91.32;102859.28;5045204;28;20060;-62
2023/04/03 01:25:17;;;;;;;12.05;7.05;;;;;;;1.46;91.36;102869.84;5045972;28;20090;-61
2023/04/03 01:27:43;;;;;;;9.43;7.10;;;;;;;1.43;91.49;102859.47;5045481;28;20041;-61
2023/04/03 01:30:09;;;;;;;12.37;6.80;;;;;;;1.38;91.35;102866.63;5046752;28;20107;-61
2023/04/03 01:32:34;;;;;;;13.00;7.10;;;;;;;1.39;91.90;102862.25;5043792;28;20044;-62
2023/04/03 01:35:00;;;;;;;11.60;7.57;;;;;;;1.39;92.11;102852.66;5046149;28;20267;-62
2023/04/03 01:37:25;;;;;;;10.97;7.53;;;;;;;1.38;92.09;102871.84;5043229;28;20089;-62
2023/04/03 01:39:50;;;;;;;12.10;7.33;;;;;;;1.41;92.00;102871.75;5045679;28;20107;-61
2023/04/03 01:42:16;;;;;;;11.70;7.23;;;;;;;1.38;92.13;102869.22;5044852;28;20041;-62
2023/04/03 01:44:41;;;;;;;11.53;7.63;;;;;;;1.36;92.05;102873.66;5046018;28;20079;-61
2023/04/03 01:47:07;;;;;;;13.47;7.43;;;;;;;1.33;91.93;102879.00;5043877;28;20052;-61
2023/04/03 01:49:32;;;;;;;10.17;7.67;;;;;;;1.27;92.07;102868.72;5045684;28;20021;-62
2023/04/03 01:51:57;;;;;;;11.10;7.03;;;;;;;1.28;92.00;102871.31;5043970;28;20417;-61
2023/04/03 01:54:23;;;;;;;10.93;7.23;;;;;;;1.32;91.87;102872.06;5045337;28;20068;-61
2023/04/03 01:56:48;;;;;;;13.53;7.40;;;;;;;1.33;91.65;102868.56;5046539;28;20033;-61
2023/04/03 01:59:16;;;;;;;11.73;7.63;;;;;;;1.28;91.86;102865.22;5042623;28;20432;-61
2023/04/03 02:01:43;;;;;;;13.03;7.60;;;;;;;1.20;92.36;102862.88;5041353;28;20029;-61
2023/04/03 02:04:08;;;;;;;11.80;7.83;;;;;;;1.18;92.21;102865.53;5046431;28;20029;-61
2023/04/03 02:06:36;;;;;;;14.87;7.80;;;;;;;1.16;92.39;102872.56;5045652;28;20041;-62
2023/04/03 02:09:02;;;;;;;11.40;7.83;;;;;;;1.23;92.58;102869.75;5045407;28;20048;-61
2023/04/03 02:11:27;;;;;;;12.80;7.77;;;;;;;1.19;92.53;102864.59;5044748;28;20033;-61
2023/04/03 02:13:52;;;;;;;15.03;8.17;;;;;;;1.27;92.74;102871.34;5046236;28;20033;-61
2023/04/03 02:16:18;;;;;;;11.37;7.77;;;;;;;1.26;92.57;102869.63;5047295;28;20025;-61
2023/04/03 02:18:43;;;;;;;11.70;7.70;;;;;;;1.25;93.08;102873.16;5044560;28;20025;-62
2023/04/03 02:21:08;;;;;;;11.00;8.00;;;;;;;1.24;92.64;102874.06;5045688;28;20024;-61
2023/04/03 02:23:36;;;;;;;13.07;8.43;;;;;;;1.22;92.95;102866.28;5045766;28;20109;-61
2023/04/03 02:26:11;;;;;;;12.17;8.07;;;;;;;1.17;93.11;102874.28;5040314;28;20392;-61
2023/04/03 02:28:37;;;;;;;12.90;8.13;;;;;;;1.24;92.76;102871.47;5038868;28;20045;-61
2023/04/03 02:31:03;;;;;;;12.43;8.07;;;;;;;1.23;92.73;102874.97;5038622;28;20032;-61
2023/04/03 02:33:29;;;;;;;14.13;8.00;;;;;;;1.17;92.81;102874.28;5037125;28;20619;-61
2023/04/03 02:35:56;;;;;;;13.10;8.10;;;;;;;1.22;92.74;102881.13;5050514;28;20488;-61
2023/04/03 02:38:21;;;;;;;14.23;8.20;;;;;;;1.24;93.11;102885.41;5040081;28;20439;-62
2023/04/03 02:40:47;;;;;;;11.07;7.73;;;;;;;1.21;92.79;102880.25;5042799;28;20051;-61
2023/04/03 02:43:13;;;;;;;12.77;7.87;;;;;;;1.17;92.71;102884.72;5045696;28;20135;-61
2023/04/03 02:45:38;;;;;;;13.00;7.97;;;;;;;1.18;92.87;102894.25;5033097;28;20033;-62
2023/04/03 02:48:04;;;;;;;12.20;8.00;;;;;;;1.12;92.89;102897.06;5043649;28;20136;-61
2023/04/03 02:50:29;;;;;;;12.03;7.83;;;;;;;1.18;93.75;102896.88;5037897;28;20104;-61
2023/04/03 02:52:55;;;;;;;12.57;7.87;;;;;;;1.15;93.08;102897.00;5044911;28;20040;-61
2023/04/03 02:55:20;;;;;;;11.63;8.10;;;;;;;1.16;93.03;102897.84;5044385;28;20029;-61
2023/04/03 02:57:45;;;;;;;12.23;7.67;;;;;;;1.14;92.83;102895.25;5041523;28;20037;-62
2023/04/03 03:00:11;;;;;;;12.57;7.40;;;;;;;1.13;93.08;102904.00;5043170;28;20468;-61
2023/04/03 03:02:36;;;;;;;11.50;7.50;;;;;;;1.10;93.40;102901.50;5042236;28;20086;-61
2023/04/03 03:05:02;;;;;;;13.43;7.43;;;;;;;1.13;92.99;102898.78;5041954;28;20104;-62
2023/04/03 03:07:27;;;;;;;11.83;7.43;;;;;;;1.10;92.96;102898.91;5042461;28;20098;-62
2023/04/03 03:09:53;;;;;;;11.90;7.50;;;;;;;1.10;93.02;102893.66;5043218;28;20051;-61
2023/04/03 03:12:21;;;;;;;12.20;7.03;;;;;;;1.11;93.42;102890.16;5043480;28;20020;-61
2023/04/03 03:14:50;;;;;;;10.83;7.23;;;;;;;1.10;93.21;102887.56;5043285;28;20498;-61
2023/04/03 03:17:16;;;;;;;12.53;6.90;;;;;;;1.12;93.26;102890.97;5044533;28;20502;-61
2023/04/03 03:19:41;;;;;;;12.13;6.87;;;;;;;1.11;93.35;102890.16;5044327;28;20033;-61
2023/04/03 03:22:06;;;;;;;10.20;6.60;;;;;;;1.08;93.29;102879.78;5044364;28;20067;-61
2023/04/03 03:24:31;;;;;;;9.90;6.60;;;;;;;1.09;93.36;102886.75;5044494;28;20037;-61
2023/04/03 03:26:57;;;;;;;11.37;6.87;;;;;;;1.09;93.27;102897.19;5043963;28;20497;-61
2023/04/03 03:29:23;;;;;;;11.53;6.73;;;;;;;1.10;93.35;102898.03;5042943;28;20103;-61
2023/04/03 03:31:48;;;;;;;13.43;6.80;;;;;;;1.08;93.43;102895.47;5043849;28;20037;-62
2023/04/03 03:34:13;;;;;;;12.30;6.77;;;;;;;1.05;93.50;102892.94;5042116;28;20028;-62
2023/04/03 03:36:39;;;;;;;13.63;6.73;;;;;;;1.00;93.77;102893.09;5042242;28;20038;-62
2023/04/03 03:39:05;;;;;;;12.23;6.33;;;;;;;1.05;93.41;102895.56;5040296;28;20826;-61
2023/04/03 03:41:30;;;;;;;12.60;6.87;;;;;;;1.02;93.52;102901.75;5043073;28;20029;-62
2023/04/03 03:43:56;;;;;;;12.50;6.40;;;;;;;1.00;93.64;102902.69;5042976;28;20033;-62
2023/04/03 03:46:21;;;;;;;9.83;6.30;;;;;;;0.99;93.36;102911.44;5042417;28;20029;-61
2023/04/03 03:48:47;;;;;;;10.07;6.00;;;;;;;0.97;93.59;102918.44;5039964;28;20084;-61
2023/04/03 03:51:12;;;;;;;12.00;6.27;;;;;;;0.97;93.68;102914.09;5043442;28;20041;-61
2023/04/03 03:53:37;;;;;;;10.50;6.13;;;;;;;0.99;93.75;102917.50;5041411;28;20039;-62
2023/04/03 03:56:04;;;;;;;10.67;5.70;;;;;;;0.97;93.21;102915.84;5040788;28;20048;-62
2023/04/03 03:58:30;;;;;;;11.20;5.60;;;;;;;0.96;93.58;102921.97;5041723;28;20078;-61
2023/04/03 04:00:55;;;;;;;9.27;5.73;;;;;;;0.93;93.26;102915.94;5041630;28;20059;-62
2023/04/03 04:03:21;;;;;;;10.87;5.63;;;;;;;0.93;93.37;102923.78;5039876;28;20479;-62
2023/04/03 04:05:46;;;;;;;9.17;5.60;;;;;;;0.94;93.66;102917.66;5042029;28;20029;-61
2023/04/03 04:08:12;;;;;;;10.27;5.30;;;;;;;0.93;93.65;102921.16;5042851;28;20037;-61
2023/04/03 04:10:37;;;;;;;8.27;5.03;;;;;;;0.98;93.48;102920.19;5042568;28;20064;-62
2023/04/03 04:13:03;;;;;;;11.37;5.40;;;;;;;0.96;93.56;102921.97;5035262;28;20473;-60
2023/04/03 04:15:28;;;;;;;9.30;5.13;;;;;;;0.94;94.01;102917.66;5041650;28;20058;-62
2023/04/03 04:17:54;;;;;;;9.00;4.80;;;;;;;0.91;93.43;102915.16;5039759;28;20098;-61
2023/04/03 04:20:20;;;;;;;9.93;4.90;;;;;;;0.89;93.50;102922.16;5037773;28;20130;-62
2023/04/03 04:22:45;;;;;;;9.90;5.07;;;;;;;0.87;93.50;102923.97;5039975;28;20036;-61
2023/04/03 04:25:10;;;;;;;9.13;5.03;;;;;;;0.87;93.64;102928.31;5039387;28;20052;-61
2023/04/03 04:27:36;;;;;;;9.93;5.00;;;;;;;0.83;94.04;102922.34;5037236;28;20033;-61
2023/04/03 04:30:03;;;;;;;11.90;5.30;;;;;;;0.82;93.42;102918.03;5043646;28;20086;-60
2023/04/03 04:32:28;;;;;;;8.30;5.10;;;;;;;0.80;93.32;102918.06;5039091;28;20120;-61
2023/04/03 04:34:53;;;;;;;10.47;5.13;;;;;;;0.77;93.32;102914.69;5044079;28;20116;-58
2023/04/03 04:37:19;;;;;;;9.50;4.90;;;;;;;0.76;93.24;102918.22;5043809;28;20108;-61
2023/04/03 04:39:44;;;;;;;7.10;4.87;;;;;;;0.72;93.34;102919.19;5042152;28;20033;-61
2023/04/03 04:42:12;;;;;;;8.80;4.80;;;;;;;0.77;93.30;102922.53;5043963;28;20029;-61
2023/04/03 04:44:40;;;;;;;8.23;4.80;;;;;;;0.73;93.46;102926.16;5042123;28;20025;-61
2023/04/03 04:47:06;;;;;;;9.83;4.80;;;;;;;0.64;93.60;102922.88;5042434;28;20484;-61
2023/04/03 04:49:32;;;;;;;8.73;4.67;;;;;;;0.66;93.36;102931.56;5034788;28;20063;-61
2023/04/03 04:51:57;;;;;;;8.07;4.53;;;;;;;0.68;94.03;102928.88;5037392;28;20037;-61
2023/04/03 04:54:22;;;;;;;10.57;4.70;;;;;;;0.68;94.17;102934.09;5037169;28;20113;-61
2023/04/03 04:56:48;;;;;;;10.60;4.73;;;;;;;0.68;93.91;102936.72;5035089;28;20075;-61
2023/04/03 04:59:13;;;;;;;9.00;4.50;;;;;;;0.66;93.95;102936.78;5037594;28;20057;-61
2023/04/03 05:01:39;;;;;;;10.33;4.80;;;;;;;0.65;93.85;102940.25;5035353;28;20057;-62
2023/04/03 05:04:04;;;;;;;8.27;4.23;;;;;;;0.64;93.69;102951.59;5037813;28;20044;-61
2023/04/03 05:06:31;;;;;;;7.43;4.30;;;;;;;0.62;93.62;102945.59;5036852;28;20044;-61
2023/04/03 05:08:57;;;;;;;8.23;4.50;;;;;;;0.62;94.02;102948.19;5035567;28;20116;-61
2023/04/03 05:11:22;;;;;;;6.93;4.30;;;;;;;0.58;93.61;102943.94;5034590;28;20129;-61
2023/04/03 05:13:49;;;;;;;11.10;4.20;;;;;;;0.61;94.58;102943.88;5035873;28;20087;-61
2023/04/03 05:16:14;;;;;;;7.07;3.90;;;;;;;0.61;93.74;102943.88;5032685;28;20078;-61
2023/04/03 05:18:40;;;;;;;6.93;3.90;;;;;;;0.62;94.12;102948.19;5037237;28;20068;-62
2023/04/03 05:21:05;;;;;;;9.53;4.30;;;;;;;0.64;94.11;102959.44;5033610;28;20511;-62
2023/04/03 05:23:30;;;;;;;10.17;4.00;;;;;;;0.63;93.64;102957.75;5037044;28;20043;-61
2023/04/03 05:25:56;;;;;;;9.17;3.97;;;;;;;0.66;93.59;102956.78;5034322;28;20040;-61
2023/04/03 05:28:21;;;;;;;8.37;4.17;;;;;;;0.66;93.69;102960.28;5037954;28;20037;-61
2023/04/03 05:30:54;;;;;;;7.67;3.80;;;;;;;0.68;93.32;102961.97;5042699;28;20033;-61
2023/04/03 05:33:19;;;;;;;7.30;3.67;;;;;;;0.66;93.46;102952.44;5040841;28;20400;-61
2023/04/03 05:35:45;;;;;;;13.70;4.43;;;;;;;0.67;93.93;102968.94;5041066;28;20120;-61
2023/04/03 05:38:10;;;;;;;7.97;4.20;;;;;;;0.70;93.49;102970.63;5036753;28;20022;-62
2023/04/03 05:40:36;;;;;;;8.40;3.80;;;;;;;0.71;93.55;102970.59;5034520;28;20291;-61
2023/04/03 05:43:01;;;;;;;6.83;3.60;;;;;;;0.72;93.45;102966.19;5039509;28;20390;-62
2023/04/03 05:45:26;;;;;;;11.63;3.90;;;;;;;0.73;93.11;102973.16;5042099;28;20029;-61
2023/04/03 05:47:52;;;;;;;9.40;3.63;;;;;;;0.77;93.53;102972.16;5040518;28;20053;-61
2023/04/03 05:50:17;;;;;;;8.20;4.00;;;;;;;0.80;92.60;102972.06;5036572;28;20033;-61
2023/04/03 05:52:45;;;;;;;7.33;3.83;;;;;;;0.80;92.53;102967.69;5039757;28;20397;-61
2023/04/03 05:55:10;;;;;;;7.70;4.00;;;;;;;0.83;93.05;102978.97;5038635;28;20029;-61
2023/04/03 05:57:36;;;;;;;7.50;3.90;;;;;;;0.86;92.97;102976.25;5036624;28;20480;-61
2023/04/03 06:00:05;;;;;;;10.30;3.70;;;;;;;0.89;92.61;102984.84;5037995;28;20041;-61
2023/04/03 06:02:31;;;;;;;7.90;3.80;;;;;;;0.93;92.71;102976.03;5039489;28;20074;-61
2023/04/03 06:04:56;;;;;;;7.90;3.80;;;;;;;0.97;92.48;102981.16;5038614;28;20024;-61
2023/04/03 06:07:26;;;;;;;8.47;3.60;;;;;;;0.92;92.02;102969.09;5038829;28;20036;-61
2023/04/03 06:09:52;;;;;;;7.70;3.70;;;;;;;1.03;91.83;102981.84;5032190;28;20049;-62
2023/04/03 06:12:18;;;;;;;9.47;3.90;;;;;;;1.03;91.69;102986.22;5040046;28;20128;-62
2023/04/03 06:14:43;;;;;;;8.50;3.57;;;;;;;1.06;90.96;102986.13;5036581;28;20025;-61
2023/04/03 06:17:09;;;;;;;7.33;3.70;;;;;;;1.12;90.69;102980.72;5039119;28;20029;-61
2023/04/03 06:19:35;;;;;;;9.30;3.90;;;;;;;1.14;90.90;102988.50;5036439;28;20072;-62
2023/04/03 06:22:00;;;;;;;10.23;4.20;;;;;;;1.18;90.83;102996.19;5036643;28;20036;-62
2023/04/03 06:24:26;;;;;;;7.47;3.70;;;;;;;1.21;90.94;102995.25;5038319;28;20056;-61
2023/04/03 06:26:52;;;;;;;6.67;3.90;;;;;;;1.26;90.43;103000.34;5040118;28;20552;-61
2023/04/03 06:29:19;;;;;;;10.93;4.00;;;;;;;1.26;90.92;102989.88;5037306;28;20036;-61
2023/04/03 06:31:45;;;;;;;8.07;4.00;;;;;;;1.30;90.87;102994.13;5040453;28;20510;-61
2023/04/03 06:34:11;;;;;;;9.33;3.80;;;;;;;1.37;89.57;102995.63;5036748;28;20025;-60
2023/04/03 06:36:37;;;;;;;9.23;3.90;;;;;;;1.36;90.05;103004.38;5036794;28;20079;-61
2023/04/03 06:39:03;;;;;;;8.83;3.90;;;;;;;1.42;89.59;103001.56;5036813;28;20571;-61
2023/04/03 06:41:28;;;;;;;7.70;3.80;;;;;;;1.44;89.78;103005.00;5035799;28;20032;-62
2023/04/03 06:43:56;;;;;;;8.93;3.57;;;;;;;1.50;89.43;103008.31;5032704;28;20030;-61
2023/04/03 06:46:22;;;;;;;8.57;3.70;;;;;;;1.53;89.13;103010.84;5038221;28;20421;-61
2023/04/03 06:48:49;;;;;;;7.97;3.80;;;;;;;1.50;88.89;102995.25;5037180;28;20053;-61
2023/04/03 06:51:25;;;;;;;8.50;3.77;;;;;;;1.63;89.15;103012.25;5036355;28;20171;-61
2023/04/03 06:53:52;;;;;;;9.33;3.80;;;;;;;1.69;88.55;103009.47;5033696;28;20035;-61
2023/04/03 06:56:18;;;;;;;8.87;3.60;;;;;;;1.71;88.35;103015.50;5036142;28;20154;-61
2023/04/03 06:58:44;;;;;;;9.73;3.70;;;;;;;1.77;87.65;103013.59;5045984;28;20099;-61
2023/04/03 07:01:11;;;;;;;7.83;3.70;;;;;;;1.81;87.29;103010.81;5043563;28;20048;-61
2023/04/03 07:03:37;;;;;;;9.43;3.63;;;;;;;1.84;87.45;103020.34;5042349;28;20037;-61
2023/04/03 07:06:04;;;;;;;10.03;3.50;;;;;;;1.89;87.29;103018.41;5043573;28;20052;-61
2023/04/03 07:08:30;;;;;;;7.87;3.63;;;;;;;1.96;86.94;103024.28;5046027;28;20109;-62
2023/04/03 07:10:56;;;;;;;7.30;3.47;;;;;;;1.99;86.98;103025.06;5043555;28;20436;-61
2023/04/03 07:13:21;;;;;;;6.97;3.60;;;;;;;2.04;87.15;103022.28;5043928;28;20075;-61
2023/04/03 07:15:46;;;;;;;7.90;3.40;;;;;;;2.09;85.84;103019.50;5040833;28;20500;-60
2023/04/03 07:18:11;;;;;;;10.67;3.80;;;;;;;2.21;85.30;103024.31;5044118;28;20442;-61
2023/04/03 07:20:38;;;;;;;9.30;3.53;;;;;;;2.19;84.26;103022.66;5043015;28;20044;-61
2023/04/03 07:23:03;;;;;;;8.33;3.80;;;;;;;2.25;85.03;103031.19;5041757;28;20025;-62
2023/04/03 07:25:29;;;;;;;11.87;3.57;;;;;;;2.27;85.17;103026.75;5041233;28;20044;-62
2023/04/03 07:27:55;;;;;;;9.57;3.47;;;;;;;2.31;84.03;103029.25;5045107;28;20041;-61
2023/04/03 07:30:21;;;;;;;8.37;3.57;;;;;;;2.33;82.92;103027.44;5044862;28;20126;-61
2023/04/03 07:32:46;;;;;;;7.00;3.50;;;;;;;2.36;83.42;103037.81;5043729;28;20040;-61
2023/04/03 07:35:12;;;;;;;9.00;3.50;;;;;;;2.40;84.01;103042.03;5042662;28;20040;-61
2023/04/03 07:37:37;;;;;;;7.27;3.50;;;;;;;2.52;83.86;103051.22;5044975;28;20043;-61
2023/04/03 07:40:04;;;;;;;7.67;3.33;;;;;;;2.58;83.12;103047.53;5036491;28;20085;-61
2023/04/03 07:42:29;;;;;;;5.60;3.17;;;;;;;2.62;82.56;103044.75;5044284;28;20445;-62
2023/04/03 07:44:55;;;;;;;7.23;3.43;;;;;;;2.67;83.63;103045.44;5040569;28;20040;-61
2023/04/03 07:47:20;;;;;;;8.30;3.30;;;;;;;2.74;82.60;103048.69;5042317;28;20678;-62
2023/04/03 07:49:46;;;;;;;10.15;3.60;;;;;;;2.80;82.31;103053.72;5041547;28;20520;-62
2023/04/03 07:52:14;;;;;;;7.85;3.30;;;;;;;2.86;82.08;103049.16;5041787;28;20804;-61
2023/04/03 07:54:39;;;;;;;8.45;3.60;;;;;;;2.93;82.37;103043.66;5038506;28;20036;-62
2023/04/03 07:57:05;;;;;;;9.52;3.17;;;;;;;3.05;82.72;103041.47;5044576;28;20037;-62
2023/04/03 07:59:31;;;;;;;6.22;3.10;;;;;;;3.12;80.16;103047.34;5041480;28;20067;-62
2023/04/03 08:01:56;;;;;;;8.55;3.20;;;;;;;3.19;81.34;103044.44;5039715;28;21105;-62
2023/04/03 08:04:22;;;;;;;7.63;3.28;;;;;;;3.29;79.13;103050.19;5031876;28;20033;-61
2023/04/03 08:06:47;;;;;;;5.20;3.00;;;;;;;3.26;78.83;103050.28;5043678;28;20516;-62
2023/04/03 08:09:15;;;;;;;7.85;3.13;;;;;;;3.32;78.48;103043.97;5039270;28;20090;-61
2023/04/03 08:11:41;;;;;;;9.10;3.40;;;;;;;3.35;77.00;103049.94;5035803;28;20500;-62
2023/04/03 08:14:06;;;;;;;10.10;3.38;;;;;;;3.36;77.66;103050.81;5042094;28;20036;-62
2023/04/03 08:16:32;;;;;;;8.15;3.00;;;;;;;3.38;76.36;103045.47;5040001;28;20056;-62
2023/04/03 08:18:58;;;;;;;5.47;2.95;;;;;;;3.43;75.51;103059.28;5034213;28;20043;-61
2023/04/03 08:21:23;;;;;;;8.57;2.75;;;;;;;3.48;75.26;103052.09;5042475;28;20029;-61
2023/04/03 08:23:50;;;;;;;7.10;2.92;;;;;;;3.53;75.81;103058.00;5042439;28;20064;-61
2023/04/03 08:26:18;;;;;;;6.40;2.85;;;;;;;3.61;74.10;103060.34;5043631;28;20028;-62
2023/04/03 08:28:44;;;;;;;6.70;2.75;;;;;;;3.68;75.38;103053.06;5042362;28;20084;-61
2023/04/03 08:31:13;;;;;;;7.03;3.00;;;;;;;3.73;74.53;103053.72;5041981;28;20474;-61
2023/04/03 08:33:39;;;;;;;13.50;3.85;;;;;;;3.85;75.79;103053.22;5034551;28;20033;-61
2023/04/03 08:36:07;;;;;;;7.10;3.30;;;;;;;3.92;76.22;103056.47;5036110;28;20520;-62
2023/04/03 08:38:32;;;;;;;17.58;7.45;;;;;;;3.99;75.38;103054.47;5041263;28;20108;-61
2023/04/03 08:41:10;;;;;;;7.68;3.58;;;;;;;4.07;74.30;103062.00;5037971;28;20449;-61
2023/04/03 08:43:57;;;;;;;5.35;2.75;;;;;;;4.13;71.62;103067.00;5041737;28;20047;-61
2023/04/03 08:46:34;;;;;;;6.00;2.70;;;;;;;4.13;71.16;103051.25;5044292;28;20029;-61
2023/04/03 08:49:00;;;;;;;5.72;2.80;;;;;;;4.21;68.98;103075.44;5044722;28;20503;-61
2023/04/03 08:51:26;;;;;;;6.07;2.72;;;;;;;4.27;68.95;103069.06;5042790;28;20041;-61
2023/04/03 08:53:54;;;;;;;6.50;2.83;;;;;;;4.28;70.87;103068.13;5044357;28;20563;-61
2023/04/03 08:56:20;;;;;;;6.10;2.85;;;;;;;4.34;69.68;103065.25;5043369;28;20033;-61
2023/04/03 08:58:48;;;;;;;6.45;2.80;;;;;;;4.43;69.40;103058.75;5043036;28;20033;-61
2023/04/03 09:01:26;;;;;;;10.68;2.88;;;;;;;4.44;68.98;103049.94;5044497;28;20033;-61
2023/04/03 09:03:51;;;;;;;4.78;2.83;;;;;;;4.60;68.93;103065.91;5042764;28;20041;-61
2023/04/03 09:06:23;;;;;;;7.00;2.92;;;;;;;4.70;68.51;103061.09;5042032;28;20036;-61
2023/04/03 09:09:21;;;;;;;6.68;3.20;;;;;;;4.96;66.67;103067.81;5048129;28;21880;-61
2023/04/03 09:12:14;;;;;;;6.40;2.92;;;;;;;4.87;64.03;103073.47;5048706;28;20102;-61
2023/04/03 09:14:49;;;;;;;4.57;2.45;;;;;;;4.85;60.75;103075.34;5041152;28;20086;-61
2023/04/03 09:17:41;;;;;;;4.88;2.38;;;;;;;4.92;58.29;103071.50;5045858;28;20029;-61
2023/04/03 09:20:19;;;;;;;2.65;2.00;;;;;;;4.85;56.21;103070.09;5042690;28;20040;-61
2023/04/03 09:22:45;;;;;;;3.50;2.00;;;;;;;4.87;54.63;103070.03;5044852;28;20442;-62
2023/04/03 09:25:21;;;;;;;3.70;1.85;;;;;;;4.91;56.28;103072.44;5048581;28;20033;-63
2023/04/03 09:27:46;;;;;;;5.53;2.10;;;;;;;5.06;55.59;103080.53;5045949;28;20036;-63
2023/04/03 09:30:17;;;;;;;3.72;1.90;;;;;;;5.09;50.92;103073.38;5045419;28;20041;-63
2023/04/03 09:32:46;;;;;;;3.45;1.80;;;;;;;5.17;52.92;103075.66;5044720;28;20030;-61
2023/04/03 09:35:22;;;;;;;5.72;2.20;;;;;;;5.28;55.38;103063.78;5039040;28;20513;-61
2023/04/03 09:37:53;;;;;;;7.47;2.40;;;;;;;5.36;56.21;103059.00;5042426;28;20143;-61
2023/04/03 09:40:40;;;;;;;3.40;2.03;;;;;;;5.41;53.94;103067.53;5047440;28;20041;-61
2023/04/03 09:43:17;;;;;;;7.57;2.53;;;;;;;5.47;52.95;103064.63;5046493;28;20047;-61
2023/04/03 09:45:44;;;;;;;2.85;2.00;;;;;;;5.39;52.93;103058.88;5047403;28;20033;-62
2023/04/03 09:48:12;;;;;;;3.33;2.10;;;;;;;5.43;49.55;103059.59;5042361;28;20621;-61
2023/04/03 09:50:56;;;;;;;3.45;2.05;;;;;;;5.45;50.17;103055.97;5047209;28;20353;-61
2023/04/03 09:53:43;;;;;;;3.95;1.90;;;;;;;5.47;47.69;103040.94;5036345;28;20025;-61
2023/04/03 09:56:15;;;;;;;3.08;1.60;;;;;;;5.52;45.26;103049.47;5047331;28;20398;-61
2023/04/03 09:58:48;;;;;;;2.25;1.60;;;;;;;5.55;44.42;103050.22;5047257;28;20029;-61
2023/04/03 10:01:33;;;;;;;;;;;;;;;5.64;48.93;103036.66;5046468;28;20029;-61
2023/04/03 10:04:12;;;;;;;2.85;1.90;;;;;;;5.66;45.79;103021.63;5040947;28;20402;-61
2023/04/03 10:06:46;;;;;;;3.63;1.70;;;;;;;5.79;45.62;103029.78;5045343;28;20039;-61
2023/04/03 10:09:20;;;;;;;4.38;1.67;;;;;;;5.78;42.64;103033.34;5040002;28;20121;-62
2023/04/03 10:11:57;;;;;;;3.58;1.70;;;;;;;5.85;42.33;103045.28;5044403;28;20029;-62
2023/04/03 10:14:22;;;;;;;2.63;1.40;;;;;;;5.89;41.83;103041.56;5043011;28;20048;-62
2023/04/03 10:16:57;;;;;;;3.20;1.48;;;;;;;5.71;39.98;103038.03;5045651;28;20056;-62
2023/04/03 10:19:51;;;;;;;2.53;1.70;;;;;;;5.72;41.36;103045.00;5042421;28;20039;-61
2023/04/03 10:22:21;;;;;;;3.33;1.63;;;;;;;5.76;41.68;103043.94;5042630;28;20065;-63
2023/04/03 10:25:00;;;;;;;2.70;1.63;;;;;;;5.84;42.58;103038.31;5046089;28;20040;-62
2023/04/03 10:27:40;;;;;;;3.17;1.65;;;;;;;5.87;41.86;103037.31;5044907;28;20037;-62
2023/04/03 10:30:18;;;;;;;2.35;1.60;;;;;;;5.95;41.48;103037.75;5045756;28;20091;-62
2023/04/03 10:32:57;;;;;;;1.98;1.33;;;;;;;6.05;40.60;103023.25;5045238;28;20051;-61
2023/04/03 10:35:56;;;;;;;3.35;1.70;;;;;;;6.11;43.65;103018.59;5042197;28;20037;-62
2023/04/03 10:38:40;;;;;;;3.97;1.50;;;;;;;6.20;41.63;103023.38;5040148;28;20033;-62
2023/04/03 10:41:20;;;;;;;2.22;1.33;;;;;;;6.24;41.63;103006.50;5046091;28;20183;-62
2023/04/03 10:44:14;;;;;;;2.65;1.70;;;;;;;6.40;41.70;103016.22;5046076;28;20056;-61
2023/04/03 10:47:05;;;;;;;4.45;1.63;;;;;;;6.51;43.21;103013.88;5043074;28;20033;-62
2023/04/03 10:49:30;;;;;;;2.35;1.40;;;;;;;6.53;39.68;103011.16;5044859;28;20546;-62
2023/04/03 10:52:07;;;;;;;1.83;1.38;;;;;;;6.58;40.81;103001.22;5042654;28;20037;-62
2023/04/03 10:54:39;;;;;;;1.70;1.17;;;;;;;6.73;40.11;103004.84;5042683;28;20122;-63
2023/04/03 10:57:08;;;;;;;1.80;1.43;;;;;;;6.71;39.58;102994.38;5045470;28;20037;-62
2023/04/03 10:59:36;;;;;;;2.33;1.42;;;;;;;6.79;38.99;103001.88;5038887;28;20033;-62
2023/04/03 11:02:31;;;;;;;4.28;1.40;;;;;;;6.83;41.58;102984.94;5040267;28;20042;-62
2023/04/03 11:05:04;;;;;;;2.50;1.42;;;;;;;6.86;39.35;102990.03;5040458;28;20041;-60
2023/04/03 11:07:38;;;;;;;1.98;1.45;;;;;;;6.88;39.85;102986.47;5040824;28;20025;-62
2023/04/03 11:10:13;;;;;;;2.90;1.65;;;;;;;6.97;39.08;102993.88;5044895;28;20041;-62
2023/04/03 11:12:59;;;;;;;2.80;1.50;;;;;;;6.98;38.85;102979.75;5037337;28;20037;-62
2023/04/03 11:15:28;;;;;;;2.03;1.40;;;;;;;7.03;40.14;102985.63;5043121;28;20246;-62
2023/04/03 11:18:09;;;;;;;3.15;1.70;;;;;;;7.14;38.69;102987.66;5043219;28;20078;-61
2023/04/03 11:20:37;;;;;;;2.25;1.60;;;;;;;7.16;39.29;102982.31;5043710;28;20097;-62
2023/04/03 11:23:19;;;;;;;1.67;1.40;;;;;;;7.23;39.04;102986.31;5038475;28;20052;-62
2023/04/03 11:25:49;;;;;;;2.55;1.50;;;;;;;7.15;37.83;102962.16;5035556;28;20508;-61
2023/04/03 11:28:16;;;;;;;2.78;1.65;;;;;;;7.30;37.90;102971.81;5036093;28;20036;-61
2023/04/03 11:30:51;;;;;;;3.10;1.70;;;;;;;7.37;39.47;102967.06;5035001;28;20155;-62
2023/04/03 11:33:31;;;;;;;2.80;1.40;;;;;;;7.42;38.97;102970.28;5037090;28;20546;-62
2023/04/03 11:36:07;;;;;;;2.00;1.48;;;;;;;7.43;37.37;102957.91;5033901;28;20030;-62